Time;durP1;ratioP1;P1;durP2;ratioP2;P2;SDS_P1;SDS_P2;PMS_P1;PMS_P2;Temp;Humidity;BMP_temperature;BMP_pressure;BME280_temperature;BME280_humidity;BME280_pressure;Samples;Min_cycle;Max_cycle;Signal;HPM_P1;HPM_P2
2022/08/20 00:01:02;;;;;;;;;;;;;;;24.65;61.79;100343.44;7404118;19;1173;-65
2022/08/20 00:03:32;;;;;;;;;;;;;;;24.53;62.06;100327.69;7406701;19;1848;-66
2022/08/20 00:06:03;;;;;;;;;;;;;;;24.49;62.15;100330.88;7405663;19;1625;-67
2022/08/20 00:08:32;;;;;;;;;;;;;;;24.53;62.06;100354.72;7406627;19;1323;-66
2022/08/20 00:11:01;;;;;;;;;;;;;;;24.58;61.71;100341.47;7405918;19;1360;-59
2022/08/20 00:13:30;;;;;;;;;;;;;;;24.66;61.65;100339.72;7401958;19;1522;-56
2022/08/20 00:15:59;;;;;;;;;;;;;;;24.73;61.49;100337.94;7401574;19;1400;-63
2022/08/20 00:18:28;;;;;;;;;;;;;;;24.67;61.89;100349.50;7405095;19;1063;-62
2022/08/20 00:20:57;;;;;;;;;;;;;;;24.59;61.98;100348.56;7404915;19;1784;-65
2022/08/20 00:23:28;;;;;;;;;;;;;;;24.58;61.71;100341.47;7403956;19;1857;-60
2022/08/20 00:25:56;;;;;;;;;;;;;;;24.67;62.01;100338.69;7404432;19;1531;-59
2022/08/20 00:28:25;;;;;;;;;;;;;;;24.64;61.67;100334.50;7404721;19;1412;-59
2022/08/20 00:30:53;;;;;;;;;;;;;;;24.72;61.80;100347.09;7405468;19;1381;-78
2022/08/20 00:33:23;;;;;;;;;;;;;;;24.73;62.00;100340.66;7403676;19;1472;-59
2022/08/20 00:35:53;;;;;;;;;;;;;;;24.60;61.87;100339.44;7403780;19;1534;-63
2022/08/20 00:38:22;;;;;;;;;;;;;;;24.47;62.42;100350.00;7401185;19;1319;-64
2022/08/20 00:40:54;;;;;;;;;;;;;;;24.38;62.91;100346.50;7404495;19;1802;-57
2022/08/20 00:43:31;;;;;;;;;;;;;;;24.47;62.61;100335.63;7404872;19;1870;-56
2022/08/20 00:46:00;;;;;;;;;;;;;;;24.51;63.55;100336.97;7405238;19;1623;-61
2022/08/20 00:48:32;;;;;;;;;;;;;;;24.29;67.43;100327.84;7405484;19;1645;-57
2022/08/20 00:51:04;;;;;;;;;;;;;;;24.24;67.79;100341.91;7404045;19;1678;-57
2022/08/20 00:53:33;;;;;;;;;;;;;;;24.20;68.11;100333.31;7404673;19;1378;-67
2022/08/20 00:56:04;;;;;;;;;;;;;;;24.20;67.78;100327.91;7403630;19;1414;-57
2022/08/20 00:58:34;;;;;;;;;;;;;;;24.16;67.72;100333.84;7404576;19;1610;-57
2022/08/20 01:01:03;;;;;;;;;;;;;;;24.31;66.99;100333.91;7403714;19;1772;-67
2022/08/20 01:03:32;;;;;;;;;;;;;;;24.21;67.24;100324.19;7403398;19;1871;-63
2022/08/20 01:06:00;;;;;;;;;;;;;;;24.26;66.18;100328.22;7403872;19;1775;-57
2022/08/20 01:08:28;;;;;;;;;;;;;;;24.16;66.36;100331.16;7404474;19;1803;-63
2022/08/20 01:11:08;;;;;;;;;;;;;;;24.21;65.82;100335.00;7403868;19;1540;-59
2022/08/20 01:13:40;;;;;;;;;;;;;;;24.28;65.73;100355.91;7403566;19;1511;-67
2022/08/20 01:16:14;;;;;;;;;;;;;;;24.24;65.35;100333.78;7403650;19;1605;-57
2022/08/20 01:18:43;;;;;;;;;;;;;;;24.34;65.64;100344.38;7411584;19;938;-67
2022/08/20 01:21:12;;;;;;;;;;;;;;;24.35;65.25;100330.69;7411788;19;1583;-67
2022/08/20 01:23:43;;;;;;;;;;;;;;;24.28;65.41;100339.69;7410124;19;1861;-67
2022/08/20 01:26:16;;;;;;;;;;;;;;;24.28;65.33;100321.59;7411627;19;1601;-57
2022/08/20 01:28:45;;;;;;;;;;;;;;;24.31;65.25;100317.69;7412054;19;1559;-67
2022/08/20 01:31:15;;;;;;;;;;;;;;;24.34;64.98;100331.69;7411644;19;1551;-66
2022/08/20 01:33:44;;;;;;;;;;;;;;;24.44;64.78;100320.63;7411452;19;1008;-67
2022/08/20 01:36:13;;;;;;;;;;;;;;;24.47;64.56;100322.13;7411459;19;1681;-57
2022/08/20 01:38:42;;;;;;;;;;;;;;;24.25;64.73;100313.00;7412067;19;1535;-67
2022/08/20 01:41:26;;;;;;;;;;;;;;;24.36;64.59;100310.72;7409802;19;1426;-57
2022/08/20 01:43:58;;;;;;;;;;;;;;;24.23;64.62;100305.06;7409232;19;1850;-57
2022/08/20 01:46:27;;;;;;;;;;;;;;;24.32;64.69;100313.97;7410924;19;1590;-67
2022/08/20 01:48:57;;;;;;;;;;;;;;;24.39;64.35;100313.06;7410932;19;1621;-67
2022/08/20 01:51:27;;;;;;;;;;;;;;;24.37;64.36;100300.75;7411085;19;1697;-57
2022/08/20 01:53:58;;;;;;;;;;;;;;;24.44;63.85;100312.50;7410236;19;1744;-57
2022/08/20 01:56:28;;;;;;;;;;;;;;;24.36;63.93;100315.28;7409581;19;1768;-67
2022/08/20 01:59:00;;;;;;;;;;;;;;;24.39;64.05;100304.09;7410267;19;1897;-57
2022/08/20 02:01:31;;;;;;;;;;;;;;;24.40;63.69;100305.81;7398119;19;1381;-57
2022/08/20 02:04:01;;;;;;;;;;;;;;;24.38;64.07;100307.84;7409366;19;1856;-57
2022/08/20 02:06:31;;;;;;;;;;;;;;;24.36;63.86;100309.88;7410048;19;1323;-57
2022/08/20 02:09:01;;;;;;;;;;;;;;;24.45;63.50;100306.06;7409860;19;1782;-57
2022/08/20 02:11:30;;;;;;;;;;;;;;;24.45;63.33;100308.78;7409427;19;1339;-57
2022/08/20 02:14:01;;;;;;;;;;;;;;;24.36;63.45;100309.88;7406230;19;1504;-57
2022/08/20 02:16:31;;;;;;;;;;;;;;;24.27;63.72;100317.22;7410471;19;1421;-57
2022/08/20 02:19:01;;;;;;;;;;;;;;;24.24;63.88;100316.75;7408439;19;1740;-57
2022/08/20 02:21:32;;;;;;;;;;;;;;;24.28;63.52;100304.56;7409246;19;1594;-57
2022/08/20 02:24:01;;;;;;;;;;;;;;;24.31;63.53;100306.88;7407617;19;1844;-57
2022/08/20 02:26:30;;;;;;;;;;;;;;;24.45;62.76;100313.34;7408504;19;1552;-57
2022/08/20 02:29:03;;;;;;;;;;;;;;;24.44;62.93;100303.56;7405525;19;1598;-57
2022/08/20 02:31:31;;;;;;;;;;;;;;;24.34;63.13;100306.53;7408747;19;1602;-57
2022/08/20 02:34:00;;;;;;;;;;;;;;;24.24;63.45;100287.03;7410812;19;956;-57
2022/08/20 02:36:28;;;;;;;;;;;;;;;24.12;63.82;100292.84;7409228;19;1512;-57
2022/08/20 02:38:57;;;;;;;;;;;;;;;24.15;63.71;100295.22;7407248;19;1634;-57
2022/08/20 02:41:26;;;;;;;;;;;;;;;24.31;63.29;100291.53;7408551;19;1581;-57
2022/08/20 02:43:55;;;;;;;;;;;;;;;24.26;63.07;100296.63;7406898;19;1845;-57
2022/08/20 02:46:27;;;;;;;;;;;;;;;24.24;63.28;100289.72;7408547;19;1420;-57
2022/08/20 02:48:55;;;;;;;;;;;;;;;24.19;63.13;100293.81;7408754;19;1535;-57
2022/08/20 02:51:24;;;;;;;;;;;;;;;24.22;62.96;100281.81;7407705;19;1682;-57
2022/08/20 02:53:53;;;;;;;;;;;;;;;24.41;62.69;100302.06;7405714;19;1613;-57
2022/08/20 02:56:21;;;;;;;;;;;;;;;24.46;62.51;100285.31;7406819;19;1543;-57
2022/08/20 02:58:50;;;;;;;;;;;;;;;24.43;62.34;100278.38;7406113;19;1593;-57
2022/08/20 03:01:19;;;;;;;;;;;;;;;24.39;62.62;100288.75;7404521;19;1618;-57
2022/08/20 03:03:51;;;;;;;;;;;;;;;24.38;62.61;100288.94;7407250;19;1879;-57
2022/08/20 03:06:20;;;;;;;;;;;;;;;24.26;62.88;100290.38;7406616;19;1326;-57
2022/08/20 03:08:49;;;;;;;;;;;;;;;24.21;62.67;100289.06;7406784;19;1343;-57
2022/08/20 03:11:19;;;;;;;;;;;;;;;24.23;62.74;100294.28;7408123;19;1570;-57
2022/08/20 03:13:48;;;;;;;;;;;;;;;24.25;62.67;100291.41;7406854;19;1543;-57
2022/08/20 03:16:16;;;;;;;;;;;;;;;24.29;62.54;100298.13;7406915;19;1526;-57
2022/08/20 03:18:46;;;;;;;;;;;;;;;24.24;62.99;100305.94;7408460;19;1079;-57
2022/08/20 03:21:17;;;;;;;;;;;;;;;24.15;62.86;100292.50;7406902;19;1642;-57
2022/08/20 03:23:46;;;;;;;;;;;;;;;24.06;63.12;100288.19;7405308;19;1865;-57
2022/08/20 03:26:16;;;;;;;;;;;;;;;24.32;62.81;100300.47;7406557;19;1546;-57
2022/08/20 03:28:45;;;;;;;;;;;;;;;24.28;62.59;100291.88;7405683;19;1602;-57
2022/08/20 03:31:14;;;;;;;;;;;;;;;24.28;62.53;100296.44;7406705;19;1604;-57
2022/08/20 03:33:42;;;;;;;;;;;;;;;24.18;63.12;100292.13;7407860;19;987;-57
2022/08/20 03:36:11;;;;;;;;;;;;;;;24.24;62.72;100303.25;7406583;19;1736;-57
2022/08/20 03:38:42;;;;;;;;;;;;;;;24.32;62.46;100314.81;7405605;19;1566;-57
2022/08/20 03:41:11;;;;;;;;;;;;;;;24.25;62.26;100296.81;7405448;19;1539;-57
2022/08/20 03:43:40;;;;;;;;;;;;;;;24.10;62.48;100300.28;7403653;19;1511;-57
2022/08/20 03:46:09;;;;;;;;;;;;;;;24.18;62.80;100324.53;7406308;19;1781;-57
2022/08/20 03:48:37;;;;;;;;;;;;;;;24.21;62.16;100313.38;7407129;19;1067;-57
2022/08/20 03:51:06;;;;;;;;;;;;;;;24.27;62.13;100319.06;7405440;19;1903;-57
2022/08/20 03:53:35;;;;;;;;;;;;;;;24.27;62.50;100327.19;7404322;19;1345;-57
2022/08/20 03:56:07;;;;;;;;;;;;;;;24.23;61.85;100305.06;7404799;19;1436;-57
2022/08/20 03:58:36;;;;;;;;;;;;;;;24.17;61.37;100328.28;7405571;19;1348;-57
2022/08/20 04:01:06;;;;;;;;;;;;;;;24.25;61.72;100340.88;7403615;19;1362;-57
2022/08/20 04:03:35;;;;;;;;;;;;;;;24.23;61.66;100321.28;7405808;19;1340;-57
2022/08/20 04:06:03;;;;;;;;;;;;;;;24.34;61.98;100311.94;7403889;19;1854;-57
2022/08/20 04:08:32;;;;;;;;;;;;;;;24.32;61.78;100311.28;7403114;19;1321;-57
2022/08/20 04:11:01;;;;;;;;;;;;;;;24.41;61.53;100339.91;7402523;19;1186;-57
2022/08/20 04:13:32;;;;;;;;;;;;;;;24.41;61.63;100313.72;7401794;19;1311;-57
2022/08/20 04:16:07;;;;;;;;;;;;;;;24.41;61.65;100329.09;7401894;19;1363;-57
2022/08/20 04:18:36;;;;;;;;;;;;;;;24.56;61.08;100332.72;7405890;19;1225;-57
2022/08/20 04:21:05;;;;;;;;;;;;;;;24.70;60.75;100333.75;7404546;19;1393;-57
2022/08/20 04:23:33;;;;;;;;;;;;;;;25.01;59.94;100330.91;7404018;19;1453;-57
2022/08/20 04:26:02;;;;;;;;;;;;;;;25.32;59.05;100316.38;7402741;19;1834;-57
2022/08/20 04:28:34;;;;;;;;;;;;;;;25.66;58.12;100327.63;7404921;19;1347;-57
2022/08/20 04:31:05;;;;;;;;;;;;;;;26.00;57.26;100324.25;7402278;19;1833;-57
2022/08/20 04:33:34;;;;;;;;;;;;;;;26.11;57.15;100321.06;7405061;19;1764;-57
2022/08/20 04:36:04;;;;;;;;;;;;;;;25.59;58.31;100332.97;7402777;19;1745;-68
2022/08/20 04:38:32;;;;;;;;;;;;;;;25.18;59.46;100346.97;7404611;19;1289;-68
2022/08/20 04:40:59;;;;;;;;;;;;;;;24.96;60.22;100343.31;7404608;19;1531;-57
2022/08/20 04:43:29;;;;;;;;;;;;;;;24.83;60.76;100348.50;7405033;19;1617;-57
2022/08/20 04:46:02;;;;;;;;;;;;;;;24.73;61.11;100348.78;7404146;19;1842;-57
2022/08/20 04:48:31;;;;;;;;;;;;;;;24.68;61.18;100338.50;7405521;19;1351;-57
2022/08/20 04:51:01;;;;;;;;;;;;;;;24.61;61.56;100333.00;7402373;19;1657;-57
2022/08/20 04:53:30;;;;;;;;;;;;;;;24.59;61.74;100348.56;7400720;19;1483;-57
2022/08/20 04:56:00;;;;;;;;;;;;;;;24.57;61.40;100350.63;7400802;19;1349;-57
2022/08/20 04:58:30;;;;;;;;;;;;;;;24.60;61.39;100350.25;7401624;19;1649;-57
2022/08/20 05:01:02;;;;;;;;;;;;;;;24.64;61.58;100360.69;7402127;19;1533;-57
2022/08/20 05:03:31;;;;;;;;;;;;;;;24.71;61.55;100350.81;7403777;19;1555;-57
2022/08/20 05:06:00;;;;;;;;;;;;;;;24.72;61.58;100349.81;7401681;19;1891;-59
2022/08/20 05:08:29;;;;;;;;;;;;;;;24.82;61.53;100366.59;7401208;19;1563;-60
2022/08/20 05:10:58;;;;;;;;;;;;;;;24.70;61.63;100354.56;7403197;19;1883;-57
2022/08/20 05:13:27;;;;;;;;;;;;;;;24.42;62.95;100341.59;7403304;19;1338;-57
2022/08/20 05:15:58;;;;;;;;;;;;;;;24.66;62.17;100356.78;7401719;19;1504;-74
2022/08/20 05:18:32;;;;;;;;;;;;;;;24.80;61.97;100341.63;7403721;19;1462;-63
2022/08/20 05:21:04;;;;;;;;;;;;;;;24.90;61.97;100350.28;7402284;19;1693;-62
2022/08/20 05:23:34;;;;;;;;;;;;;;;24.96;61.83;100341.44;7403885;19;1515;-64
2022/08/20 05:26:04;;;;;;;;;;;;;;;25.05;61.76;100341.34;7401706;19;1837;-60
2022/08/20 05:28:33;;;;;;;;;;;;;;;25.17;62.74;100335.31;7397192;19;1940;-57
2022/08/20 05:31:04;;;;;;;;;;;;;;;25.25;62.76;100342.53;7399799;19;1391;-57
2022/08/20 05:33:35;;;;;;;;;;;;;;;25.32;62.60;100339.91;7399711;19;1433;-56
2022/08/20 05:36:05;;;;;;;;;;;;;;;25.29;62.70;100343.00;7402899;19;1143;-58
2022/08/20 05:38:34;;;;;;;;;;;;;;;25.30;62.39;100339.25;7400492;19;1314;-57
2022/08/20 05:41:03;;;;;;;;;;;;;;;25.30;62.85;100331.13;7396033;19;1273;-57
2022/08/20 05:43:32;;;;;;;;;;;;;;;25.32;63.54;100337.19;7393791;19;1350;-58
2022/08/20 05:46:01;;;;;;;;;;;;;;;25.39;63.17;100333.53;7394198;19;1846;-58
2022/08/20 05:48:30;;;;;;;;;;;;;;;25.47;63.30;100329.06;7400731;19;1546;-58
2022/08/20 05:51:01;;;;;;;;;;;;;;;25.42;63.99;100348.56;7393570;19;1541;-59
2022/08/20 05:53:30;;;;;;;;;;;;;;;25.42;63.61;100320.66;7392604;19;1244;-58
2022/08/20 05:56:00;;;;;;;;;;;;;;;25.36;63.75;100330.38;7392907;19;1633;-58
2022/08/20 05:58:31;;;;;;;;;;;;;;;25.36;63.84;100328.50;7393968;19;1328;-59
2022/08/20 06:01:00;;;;;;;;;;;;;;;25.34;63.52;100322.44;7389677;19;1332;-58
2022/08/20 06:06:12;;;;;;;;;;;;;;;25.34;63.41;100317.00;7401408;19;1852;-73
2022/08/20 06:08:40;;;;;;;;;;;;;;;25.33;63.68;100328.88;7405005;19;1598;-72
2022/08/20 06:11:09;;;;;;;;;;;;;;;25.32;63.50;100332.59;7406879;19;1547;-72
2022/08/20 06:13:37;;;;;;;;;;;;;;;25.37;63.81;100332.88;7404523;19;1520;-72
2022/08/20 06:16:06;;;;;;;;;;;;;;;25.38;63.67;100326.44;7404704;19;1432;-73
2022/08/20 06:18:35;;;;;;;;;;;;;;;25.07;63.68;100266.25;7401861;19;1322;-73
2022/08/20 06:21:03;;;;;;;;;;;;;;;25.35;63.57;100332.25;7404491;19;1732;-73
2022/08/20 06:23:34;;;;;;;;;;;;;;;25.37;63.71;100323.94;7402195;19;1399;-73
2022/08/20 06:26:07;;;;;;;;;;;;;;;25.38;63.65;100314.78;7394673;19;1846;-58
2022/08/20 06:28:36;;;;;;;;;;;;;;;25.40;63.63;100318.97;7395377;19;1446;-58
2022/08/20 06:31:05;;;;;;;;;;;;;;;25.37;63.76;100327.47;7395899;19;1733;-58
2022/08/20 06:33:34;;;;;;;;;;;;;;;25.37;63.41;100322.06;7397749;19;1433;-73
2022/08/20 06:36:02;;;;;;;;;;;;;;;25.39;63.55;100321.88;7398753;19;1211;-73
2022/08/20 06:38:31;;;;;;;;;;;;;;;25.38;63.43;100309.38;7404104;19;1393;-73
2022/08/20 06:41:02;;;;;;;;;;;;;;;25.39;63.28;100317.31;7404990;19;1271;-73
2022/08/20 06:43:31;;;;;;;;;;;;;;;25.42;63.46;100323.38;7402975;19;1284;-72
2022/08/20 06:46:01;;;;;;;;;;;;;;;25.42;63.41;100309.84;7405220;19;1845;-72
2022/08/20 06:48:29;;;;;;;;;;;;;;;25.46;63.21;100324.66;7404033;19;1815;-72
2022/08/20 06:50:58;;;;;;;;;;;;;;;25.43;63.29;100314.19;7402085;19;1614;-72
2022/08/20 06:53:27;;;;;;;;;;;;;;;25.44;63.17;100327.56;7403718;19;1613;-73
2022/08/20 06:55:58;;;;;;;;;;;;;;;25.45;63.34;100309.47;7401748;19;1437;-73
2022/08/20 06:58:31;;;;;;;;;;;;;;;25.46;63.16;100311.13;7397591;19;1519;-73
2022/08/20 07:01:00;;;;;;;;;;;;;;;25.45;63.26;100331.97;7396504;19;1377;-73
2022/08/20 07:03:29;;;;;;;;;;;;;;;25.49;63.55;100316.19;7392210;19;1586;-73
2022/08/20 07:05:58;;;;;;;;;;;;;;;25.47;63.49;100318.25;7395604;19;1849;-73
2022/08/20 07:08:26;;;;;;;;;;;;;;;25.35;63.35;100317.88;7398221;19;1618;-72
2022/08/20 07:10:55;;;;;;;;;;;;;;;24.35;64.23;100302.78;7401407;19;1387;-72
2022/08/20 07:13:23;;;;;;;;;;;;;;;23.71;64.94;100309.28;7402738;19;1429;-72
2022/08/20 07:15:54;;;;;;;;;;;;;;;23.38;65.40;100312.19;7396250;19;1582;-58
2022/08/20 07:18:23;;;;;;;;;;;;;;;23.45;65.28;100319.56;7402997;19;1631;-72
2022/08/20 07:20:55;;;;;;;;;;;;;;;23.59;64.49;100302.63;7402224;19;1879;-73
2022/08/20 07:23:23;;;;;;;;;;;;;;;23.66;64.55;100305.47;7400128;19;1593;-73
2022/08/20 07:25:51;;;;;;;;;;;;;;;23.44;65.22;100299.84;7399537;19;1855;-73
2022/08/20 07:28:21;;;;;;;;;;;;;;;23.60;64.14;100296.22;7394906;19;1331;-58
2022/08/20 07:33:33;;;;;;;;;;;;;;;23.41;64.70;100294.78;7403024;19;1652;-58
2022/08/20 07:36:02;;;;;;;;;;;;;;;23.57;64.28;100297.38;7401990;19;1614;-73
2022/08/20 07:38:31;;;;;;;;;;;;;;;23.41;65.06;100302.88;7401138;19;1436;-73
2022/08/20 07:41:01;;;;;;;;;;;;;;;23.46;64.60;100299.63;7402742;19;1372;-57
2022/08/20 07:43:31;;;;;;;;;;;;;;;23.58;63.88;100304.47;7400739;19;1417;-73
2022/08/20 07:46:01;;;;;;;;;;;;;;;23.33;64.88;100301.06;7398963;19;1855;-72
2022/08/20 07:48:33;;;;;;;;;;;;;;;23.63;64.40;100306.66;7401263;19;1476;-70
2022/08/20 07:51:02;;;;;;;;;;;;;;;23.59;64.63;100291.81;7398228;19;1445;-58
2022/08/20 07:53:32;;;;;;;;;;;;;;;23.46;65.75;100288.84;7401218;19;1437;-74
2022/08/20 07:56:01;;;;;;;;;;;;;;;23.69;65.49;100292.44;7392951;19;1338;-72
2022/08/20 07:58:29;;;;;;;;;;;;;;;23.57;65.83;100278.50;7400010;19;1398;-73
2022/08/20 08:00:58;;;;;;;;;;;;;;;23.52;66.15;100285.47;7405167;19;1535;-58
2022/08/20 08:03:27;;;;;;;;;;;;;;;23.77;66.16;100278.91;7404914;19;1850;-58
2022/08/20 08:05:59;;;;;;;;;;;;;;;23.70;66.49;100287.91;7400584;19;1850;-57
2022/08/20 08:08:29;;;;;;;;;;;;;;;23.55;68.21;100285.09;7405299;19;1381;-59
2022/08/20 08:10:59;;;;;;;;;;;;;;;23.53;68.74;100265.53;7406505;19;1543;-58
2022/08/20 08:13:28;;;;;;;;;;;;;;;23.60;68.89;100266.53;7404540;19;1759;-67
2022/08/20 08:16:00;;;;;;;;;;;;;;;23.68;68.81;100254.84;7401574;19;1507;-70
2022/08/20 08:18:32;;;;;;;;;;;;;;;23.60;68.87;100256.56;7398084;19;1352;-69
2022/08/20 08:21:04;;;;;;;;;;;;;;;23.58;69.11;100268.56;7396929;19;1248;-62
2022/08/20 08:23:33;;;;;;;;;;;;;;;23.56;69.49;100257.94;7395747;19;1304;-59
2022/08/20 08:26:02;;;;;;;;;;;;;;;23.70;68.96;100261.72;7394335;19;1846;-62
2022/08/20 08:28:31;;;;;;;;;;;;;;;23.58;68.69;100255.91;7403131;19;1217;-64
2022/08/20 08:30:59;;;;;;;;;;;;;;;23.47;68.74;100255.47;7404215;19;1338;-63
2022/08/20 08:33:29;;;;;;;;;;;;;;;23.46;69.03;100251.94;7405988;19;1356;-78
2022/08/20 08:35:58;;;;;;;;;;;;;;;23.55;68.35;100239.22;7403002;19;1435;-67
2022/08/20 08:38:29;;;;;;;;;;;;;;;23.47;68.81;100241.97;7404031;19;1713;-74
2022/08/20 08:40:59;;;;;;;;;;;;;;;23.51;68.69;100232.50;7403933;19;1336;-67
2022/08/20 08:43:28;;;;;;;;;;;;;;;23.71;68.06;100225.59;7404123;19;1610;-66
2022/08/20 08:46:00;;;;;;;;;;;;;;;23.80;68.12;100223.72;7403146;19;1862;-63
2022/08/20 08:48:39;;;;;;;;;;;;;;;23.66;68.50;100228.03;7403728;19;1238;-64
2022/08/20 08:51:11;;;;;;;;;;;;;;;23.67;68.61;100221.59;7403953;19;1195;-56
2022/08/20 08:53:45;;;;;;;;;;;;;;;23.64;68.53;100224.66;7401663;19;1337;-55
2022/08/20 08:56:13;;;;;;;;;;;;;;;23.65;68.45;100218.22;7403980;19;1606;-60
2022/08/20 08:58:43;;;;;;;;;;;;;;;23.70;68.13;100229.34;7401460;19;1384;-55
2022/08/20 09:01:14;;;;;;;;;;;;;;;23.69;68.22;100218.72;7401376;19;1665;-57
2022/08/20 09:03:44;;;;;;;;;;;;;;;23.62;68.00;100229.41;7402922;19;1558;-58
2022/08/20 09:06:15;;;;;;;;;;;;;;;23.62;67.77;100216.72;7402552;19;1852;-54
2022/08/20 09:08:49;;;;;;;;;;;;;;;23.52;68.09;100204.50;7404078;19;1622;-56
2022/08/20 09:11:19;;;;;;;;;;;;;;;23.56;67.89;100205.81;7402117;19;1606;-61
2022/08/20 09:13:47;;;;;;;;;;;;;;;23.42;68.10;100213.66;7403509;19;1614;-58
2022/08/20 09:16:16;;;;;;;;;;;;;;;23.53;67.87;100215.09;7403257;19;1298;-62
2022/08/20 09:18:44;;;;;;;;;;;;;;;23.74;67.48;100205.53;7401701;19;1615;-56
2022/08/20 09:21:13;;;;;;;;;;;;;;;23.81;67.28;100214.59;7402997;19;1606;-59
2022/08/20 09:23:42;;;;;;;;;;;;;;;23.82;67.13;100233.31;7398242;19;1228;-55
2022/08/20 09:26:13;;;;;;;;;;;;;;;23.81;66.62;100218.16;7398597;19;1845;-56
2022/08/20 09:28:41;;;;;;;;;;;;;;;23.62;67.50;100205.94;7400161;19;1433;-70
2022/08/20 09:31:09;;;;;;;;;;;;;;;23.56;68.03;100205.81;7403505;19;1245;-69
2022/08/20 09:33:38;;;;;;;;;;;;;;;23.55;67.82;100206.84;7403135;19;1289;-59
2022/08/20 09:36:06;;;;;;;;;;;;;;;23.52;67.87;100191.00;7402474;19;1615;-75
2022/08/20 09:38:35;;;;;;;;;;;;;;;23.73;67.21;100190.34;7407433;19;1511;-70
2022/08/20 09:41:03;;;;;;;;;;;;;;;23.71;67.00;100193.22;7409889;19;1321;-57
2022/08/20 09:43:34;;;;;;;;;;;;;;;23.52;68.18;100169.44;7411106;19;1461;-75
2022/08/20 09:46:03;;;;;;;;;;;;;;;23.49;67.98;100189.50;7408814;19;1850;-59
2022/08/20 09:48:31;;;;;;;;;;;;;;;23.55;67.82;100177.13;7410444;19;1859;-75
2022/08/20 09:50:59;;;;;;;;;;;;;;;23.49;67.96;100172.47;7409085;19;1270;-74
2022/08/20 09:53:28;;;;;;;;;;;;;;;23.58;68.10;100171.41;7410485;19;1537;-73
2022/08/20 09:55:57;;;;;;;;;;;;;;;23.68;68.77;100185.50;7410251;19;1375;-57
2022/08/20 09:58:27;;;;;;;;;;;;;;;23.57;69.80;100172.41;7410424;19;1539;-66
2022/08/20 10:00:58;;;;;;;;;;;;;;;23.53;70.43;100157.59;7409888;19;1542;-58
2022/08/20 10:03:27;;;;;;;;;;;;;;;23.46;69.96;100170.13;7410094;19;1552;-73
2022/08/20 10:05:55;;;;;;;;;;;;;;;23.40;70.19;100169.81;7411492;19;1845;-59
2022/08/20 10:08:23;;;;;;;;;;;;;;;23.62;69.21;100178.13;7409093;19;1582;-59
2022/08/20 10:10:52;;;;;;;;;;;;;;;23.55;69.54;100172.56;7409923;19;1425;-59
2022/08/20 10:13:20;;;;;;;;;;;;;;;23.41;69.87;100160.69;7410765;19;1521;-59
2022/08/20 10:15:48;;;;;;;;;;;;;;;23.55;69.19;100167.19;7407096;19;1670;-59
2022/08/20 10:18:19;;;;;;;;;;;;;;;23.57;69.20;100153.50;7408000;19;1543;-68
2022/08/20 10:20:48;;;;;;;;;;;;;;;23.42;69.54;100157.00;7408190;19;1282;-64
2022/08/20 10:23:16;;;;;;;;;;;;;;;23.52;69.19;100147.84;7409908;19;1617;-61
2022/08/20 10:25:45;;;;;;;;;;;;;;;23.67;68.60;100150.56;7408024;19;1674;-61
2022/08/20 10:28:13;;;;;;;;;;;;;;;23.52;68.79;100158.63;7406054;19;1841;-61
2022/08/20 10:30:43;;;;;;;;;;;;;;;23.38;68.97;100147.59;7409528;19;1560;-58
2022/08/20 10:33:12;;;;;;;;;;;;;;;23.63;68.18;100168.97;7411572;19;1544;-74
2022/08/20 10:35:43;;;;;;;;;;;;;;;23.45;68.42;100147.69;7410416;19;1595;-75
2022/08/20 10:38:12;;;;;;;;;;;;;;;23.39;68.59;100141.16;7409821;19;1562;-75
2022/08/20 10:40:40;;;;;;;;;;;;;;;23.54;68.15;100148.50;7409911;19;1543;-73
2022/08/20 10:43:09;;;;;;;;;;;;;;;23.48;68.95;100150.03;7410006;19;1534;-58
2022/08/20 10:45:37;;;;;;;;;;;;;;;23.43;68.99;100123.59;7410175;19;976;-57
2022/08/20 10:48:06;;;;;;;;;;;;;;;23.59;68.49;100130.72;7406937;19;1855;-73
2022/08/20 10:50:35;;;;;;;;;;;;;;;23.41;68.74;100133.72;7408022;19;1350;-72
2022/08/20 10:53:06;;;;;;;;;;;;;;;23.40;68.88;100144.72;7408207;19;1535;-72
2022/08/20 10:55:34;;;;;;;;;;;;;;;23.49;68.18;100129.28;7407785;19;1436;-58
2022/08/20 10:58:03;;;;;;;;;;;;;;;23.23;69.08;100128.63;7407818;19;1457;-65
2022/08/20 11:00:31;;;;;;;;;;;;;;;23.43;68.65;100138.94;7408829;19;1610;-72
2022/08/20 11:03:00;;;;;;;;;;;;;;;23.56;68.03;100135.66;7409201;19;1548;-73
2022/08/20 11:05:28;;;;;;;;;;;;;;;23.32;68.14;100124.03;7407611;19;1773;-72
2022/08/20 11:07:58;;;;;;;;;;;;;;;23.32;68.19;100107.84;7405896;19;1843;-57
2022/08/20 11:10:32;;;;;;;;;;;;;;;23.42;67.97;100119.22;7406118;19;1429;-57
2022/08/20 11:13:00;;;;;;;;;;;;;;;23.54;67.13;100125.03;7407317;19;1663;-72
2022/08/20 11:15:29;;;;;;;;;;;;;;;23.29;67.65;100118.97;7406409;19;1560;-57
2022/08/20 11:17:58;;;;;;;;;;;;;;;23.36;67.53;100119.94;7408541;19;1454;-57
2022/08/20 11:20:26;;;;;;;;;;;;;;;23.47;67.27;100096.25;7408017;19;1692;-57
2022/08/20 11:22:55;;;;;;;;;;;;;;;23.37;67.60;100110.81;7404946;19;1241;-74
2022/08/20 11:25:24;;;;;;;;;;;;;;;23.27;67.69;100123.72;7406991;19;1559;-57
2022/08/20 11:27:55;;;;;;;;;;;;;;;23.45;67.03;100111.78;7408009;19;1849;-73
2022/08/20 11:30:25;;;;;;;;;;;;;;;23.45;67.11;100114.47;7407820;19;1514;-57
2022/08/20 11:32:54;;;;;;;;;;;;;;;23.22;67.67;100104.53;7406376;19;1736;-57
2022/08/20 11:35:23;;;;;;;;;;;;;;;23.32;67.60;100104.31;7406675;19;1520;-57
2022/08/20 11:37:51;;;;;;;;;;;;;;;23.46;66.95;100106.22;7407662;19;1554;-56
2022/08/20 11:40:20;;;;;;;;;;;;;;;23.43;66.72;100110.09;7408135;19;1453;-68
2022/08/20 11:42:48;;;;;;;;;;;;;;;23.26;67.56;100107.69;7406654;19;1662;-68
2022/08/20 11:45:19;;;;;;;;;;;;;;;23.33;67.22;100097.88;7407774;19;1518;-56
2022/08/20 11:47:48;;;;;;;;;;;;;;;23.44;66.75;100105.56;7405321;19;1857;-56
2022/08/20 11:50:17;;;;;;;;;;;;;;;23.53;66.31;100095.53;7405096;19;1413;-56
2022/08/20 11:52:46;;;;;;;;;;;;;;;23.48;66.43;100106.03;7405224;19;1282;-67
2022/08/20 11:55:16;;;;;;;;;;;;;;;23.59;65.90;100102.88;7405227;19;1527;-64
2022/08/20 11:57:45;;;;;;;;;;;;;;;23.58;65.83;100107.47;7406165;19;1425;-56
2022/08/20 12:00:15;;;;;;;;;;;;;;;23.53;65.76;100084.72;7403331;19;1720;-55
2022/08/20 12:02:47;;;;;;;;;;;;;;;23.53;66.04;100100.91;7404363;19;1551;-55
2022/08/20 12:05:16;;;;;;;;;;;;;;;23.24;66.71;100105.19;7403133;19;1331;-56
2022/08/20 12:07:44;;;;;;;;;;;;;;;23.32;66.12;100088.94;7403720;19;1867;-63
2022/08/20 12:10:13;;;;;;;;;;;;;;;23.49;65.88;100078.84;7404809;19;1540;-63
2022/08/20 12:12:41;;;;;;;;;;;;;;;23.49;65.34;100088.81;7405350;19;1380;-63
2022/08/20 12:15:11;;;;;;;;;;;;;;;23.51;65.17;100067.88;7404460;19;1448;-63
2022/08/20 12:17:40;;;;;;;;;;;;;;;23.51;65.24;100063.31;7404560;19;1354;-63
2022/08/20 12:20:12;;;;;;;;;;;;;;;23.48;65.45;100065.56;7404187;19;1536;-56
2022/08/20 12:22:41;;;;;;;;;;;;;;;23.51;65.31;100059.78;7401062;19;1375;-56
2022/08/20 12:25:10;;;;;;;;;;;;;;;23.50;65.25;100058.94;7405374;19;1439;-64
2022/08/20 12:27:39;;;;;;;;;;;;;;;23.47;65.04;100051.22;7401825;19;1873;-56
2022/08/20 12:30:09;;;;;;;;;;;;;;;23.53;65.32;100060.44;7402322;19;1343;-64
2022/08/20 12:32:38;;;;;;;;;;;;;;;23.47;65.21;100056.59;7404238;19;1353;-62
2022/08/20 12:35:07;;;;;;;;;;;;;;;23.48;65.18;100046.66;7405577;19;1955;-64
2022/08/20 12:37:38;;;;;;;;;;;;;;;23.53;65.17;100022.66;7405693;19;1507;-61
2022/08/20 12:40:09;;;;;;;;;;;;;;;23.52;65.08;100040.72;7404348;19;1665;-56
2022/08/20 12:42:38;;;;;;;;;;;;;;;23.42;65.69;100037.44;7404727;19;1685;-56
2022/08/20 12:45:08;;;;;;;;;;;;;;;23.55;65.79;100047.59;7403312;19;1626;-59
2022/08/20 12:47:37;;;;;;;;;;;;;;;23.79;65.91;100033.06;7403124;19;1856;-61
2022/08/20 12:50:07;;;;;;;;;;;;;;;23.48;67.27;100034.00;7401317;19;1783;-54
2022/08/20 12:52:38;;;;;;;;;;;;;;;23.55;67.15;100034.09;7399309;19;1583;-59
2022/08/20 12:55:07;;;;;;;;;;;;;;;23.84;66.04;100025.25;7402932;19;1270;-56
2022/08/20 12:57:38;;;;;;;;;;;;;;;23.61;66.98;100022.56;7400431;19;1382;-60
2022/08/20 13:00:08;;;;;;;;;;;;;;;23.66;67.07;100017.47;7402838;19;1728;-53
2022/08/20 13:02:37;;;;;;;;;;;;;;;23.66;67.14;100012.06;7402395;19;1392;-54
2022/08/20 13:05:06;;;;;;;;;;;;;;;23.60;67.47;100012.81;7404079;19;1202;-61